sensor_id;sensor_type;location;lat;lon;timestamp;temperature;humidity
60717;DHT22;46566;52.700;6.192;2023-04-30T00:00:12;10.80;99.90
60717;DHT22;46566;52.700;6.192;2023-04-30T00:02:40;10.80;99.90
60717;DHT22;46566;52.700;6.192;2023-04-30T00:05:06;10.80;99.90
60717;DHT22;46566;52.700;6.192;2023-04-30T00:07:32;10.70;99.90
60717;DHT22;46566;52.700;6.192;2023-04-30T00:09:58;10.70;99.90
60717;DHT22;46566;52.700;6.192;2023-04-30T00:12:23;10.70;99.90
60717;DHT22;46566;52.700;6.192;2023-04-30T00:14:49;10.70;99.90
60717;DHT22;46566;52.700;6.192;2023-04-30T00:17:16;10.70;99.90
60717;DHT22;46566;52.700;6.192;2023-04-30T00:19:41;10.70;99.90
60717;DHT22;46566;52.700;6.192;2023-04-30T00:22:07;10.70;99.90
60717;DHT22;46566;52.700;6.192;2023-04-30T00:24:33;10.60;99.90
60717;DHT22;46566;52.700;6.192;2023-04-30T00:26:59;10.60;99.90
60717;DHT22;46566;52.700;6.192;2023-04-30T00:29:24;10.50;99.90
60717;DHT22;46566;52.700;6.192;2023-04-30T00:31:50;10.40;99.90
60717;DHT22;46566;52.700;6.192;2023-04-30T00:34:16;10.30;99.90
60717;DHT22;46566;52.700;6.192;2023-04-30T00:36:42;10.20;99.90
60717;DHT22;46566;52.700;6.192;2023-04-30T00:39:07;10.10;99.90
60717;DHT22;46566;52.700;6.192;2023-04-30T00:41:36;10.00;99.90
60717;DHT22;46566;52.700;6.192;2023-04-30T00:44:03;10.00;99.90
60717;DHT22;46566;52.700;6.192;2023-04-30T00:46:28;9.90;99.90
60717;DHT22;46566;52.700;6.192;2023-04-30T00:48:55;9.80;99.90
60717;DHT22;46566;52.700;6.192;2023-04-30T00:51:21;9.80;99.90
60717;DHT22;46566;52.700;6.192;2023-04-30T00:53:47;9.70;99.90
60717;DHT22;46566;52.700;6.192;2023-04-30T00:56:14;9.70;99.90
60717;DHT22;46566;52.700;6.192;2023-04-30T00:58:43;9.60;99.90
60717;DHT22;46566;52.700;6.192;2023-04-30T01:01:09;9.60;99.90
60717;DHT22;46566;52.700;6.192;2023-04-30T01:03:35;9.60;99.90
60717;DHT22;46566;52.700;6.192;2023-04-30T01:06:02;9.60;99.90
60717;DHT22;46566;52.700;6.192;2023-04-30T01:08:29;9.50;99.90
60717;DHT22;46566;52.700;6.192;2023-04-30T01:11:14;9.50;99.90
60717;DHT22;46566;52.700;6.192;2023-04-30T01:14:09;9.50;99.90
60717;DHT22;46566;52.700;6.192;2023-04-30T01:16:44;9.40;99.90
60717;DHT22;46566;52.700;6.192;2023-04-30T01:21:59;9.40;99.90
60717;DHT22;46566;52.700;6.192;2023-04-30T01:24:53;9.30;99.90
60717;DHT22;46566;52.700;6.192;2023-04-30T01:29:55;9.30;99.90
60717;DHT22;46566;52.700;6.192;2023-04-30T01:32:23;9.20;99.90
60717;DHT22;46566;52.700;6.192;2023-04-30T01:34:48;9.20;99.90
60717;DHT22;46566;52.700;6.192;2023-04-30T01:37:23;9.10;99.90
60717;DHT22;46566;52.700;6.192;2023-04-30T01:40:12;9.10;99.90
60717;DHT22;46566;52.700;6.192;2023-04-30T01:42:59;9.00;99.90
60717;DHT22;46566;52.700;6.192;2023-04-30T01:51:42;8.90;99.90
60717;DHT22;46566;52.700;6.192;2023-04-30T01:54:29;8.90;99.90
60717;DHT22;46566;52.700;6.192;2023-04-30T01:57:12;8.80;99.90
60717;DHT22;46566;52.700;6.192;2023-04-30T01:59:52;8.80;99.90
60717;DHT22;46566;52.700;6.192;2023-04-30T02:02:28;8.70;99.90
60717;DHT22;46566;52.700;6.192;2023-04-30T02:04:54;8.70;99.90
60717;DHT22;46566;52.700;6.192;2023-04-30T02:07:39;8.70;99.90
60717;DHT22;46566;52.700;6.192;2023-04-30T02:10:07;8.70;99.90
60717;DHT22;46566;52.700;6.192;2023-04-30T02:12:33;8.60;99.90
60717;DHT22;46566;52.700;6.192;2023-04-30T02:15:00;8.70;99.90
60717;DHT22;46566;52.700;6.192;2023-04-30T02:17:26;8.60;99.90
60717;DHT22;46566;52.700;6.192;2023-04-30T02:19:52;8.60;99.90
60717;DHT22;46566;52.700;6.192;2023-04-30T02:22:17;8.60;99.90
60717;DHT22;46566;52.700;6.192;2023-04-30T02:24:43;8.50;99.90
60717;DHT22;46566;52.700;6.192;2023-04-30T02:27:09;8.50;99.90
60717;DHT22;46566;52.700;6.192;2023-04-30T02:29:35;8.50;99.90
60717;DHT22;46566;52.700;6.192;2023-04-30T02:32:01;8.50;99.90
60717;DHT22;46566;52.700;6.192;2023-04-30T02:34:26;8.40;99.90
60717;DHT22;46566;52.700;6.192;2023-04-30T02:36:52;8.40;99.90
60717;DHT22;46566;52.700;6.192;2023-04-30T02:39:18;8.30;99.90
60717;DHT22;46566;52.700;6.192;2023-04-30T02:41:44;8.30;99.90
60717;DHT22;46566;52.700;6.192;2023-04-30T02:44:10;8.20;99.90
60717;DHT22;46566;52.700;6.192;2023-04-30T02:46:36;8.20;99.90
60717;DHT22;46566;52.700;6.192;2023-04-30T02:49:02;8.20;99.90
60717;DHT22;46566;52.700;6.192;2023-04-30T02:51:28;8.20;99.90
60717;DHT22;46566;52.700;6.192;2023-04-30T02:53:53;8.20;99.90
60717;DHT22;46566;52.700;6.192;2023-04-30T02:56:19;8.20;99.90
60717;DHT22;46566;52.700;6.192;2023-04-30T02:58:45;8.20;99.90
60717;DHT22;46566;52.700;6.192;2023-04-30T03:01:12;8.20;99.90
60717;DHT22;46566;52.700;6.192;2023-04-30T03:03:38;8.10;99.90
60717;DHT22;46566;52.700;6.192;2023-04-30T03:06:04;8.10;99.90
60717;DHT22;46566;52.700;6.192;2023-04-30T03:08:29;8.10;99.90
60717;DHT22;46566;52.700;6.192;2023-04-30T03:10:55;8.10;99.90
60717;DHT22;46566;52.700;6.192;2023-04-30T03:13:21;8.00;99.90
60717;DHT22;46566;52.700;6.192;2023-04-30T03:15:46;8.00;99.90
60717;DHT22;46566;52.700;6.192;2023-04-30T03:18:13;8.00;99.90
60717;DHT22;46566;52.700;6.192;2023-04-30T03:20:39;7.90;99.90
60717;DHT22;46566;52.700;6.192;2023-04-30T03:23:05;7.80;99.90
60717;DHT22;46566;52.700;6.192;2023-04-30T03:25:31;7.70;99.90
60717;DHT22;46566;52.700;6.192;2023-04-30T03:27:57;7.60;99.90
60717;DHT22;46566;52.700;6.192;2023-04-30T03:30:24;7.60;99.90
60717;DHT22;46566;52.700;6.192;2023-04-30T03:32:50;7.60;99.90
60717;DHT22;46566;52.700;6.192;2023-04-30T03:35:15;7.60;99.90
60717;DHT22;46566;52.700;6.192;2023-04-30T03:37:41;7.60;99.90
60717;DHT22;46566;52.700;6.192;2023-04-30T03:40:07;7.60;99.90
60717;DHT22;46566;52.700;6.192;2023-04-30T03:42:33;7.60;99.90
60717;DHT22;46566;52.700;6.192;2023-04-30T03:44:59;7.60;99.90
60717;DHT22;46566;52.700;6.192;2023-04-30T03:47:25;7.60;99.90
60717;DHT22;46566;52.700;6.192;2023-04-30T03:49:51;7.60;99.90
60717;DHT22;46566;52.700;6.192;2023-04-30T03:52:20;7.60;99.90
60717;DHT22;46566;52.700;6.192;2023-04-30T03:54:47;7.60;99.90
60717;DHT22;46566;52.700;6.192;2023-04-30T03:57:13;7.60;99.90
60717;DHT22;46566;52.700;6.192;2023-04-30T03:59:39;7.60;99.90
60717;DHT22;46566;52.700;6.192;2023-04-30T04:02:06;7.50;99.90
60717;DHT22;46566;52.700;6.192;2023-04-30T04:04:32;7.50;99.90
60717;DHT22;46566;52.700;6.192;2023-04-30T04:06:58;7.40;99.90
60717;DHT22;46566;52.700;6.192;2023-04-30T04:09:24;7.40;99.90
60717;DHT22;46566;52.700;6.192;2023-04-30T04:11:50;7.40;99.90
60717;DHT22;46566;52.700;6.192;2023-04-30T04:14:15;7.30;99.90
60717;DHT22;46566;52.700;6.192;2023-04-30T04:16:41;7.30;99.90
60717;DHT22;46566;52.700;6.192;2023-04-30T04:19:07;7.30;99.90
60717;DHT22;46566;52.700;6.192;2023-04-30T04:21:35;7.20;99.90
60717;DHT22;46566;52.700;6.192;2023-04-30T04:24:05;7.20;99.90
60717;DHT22;46566;52.700;6.192;2023-04-30T04:26:34;7.10;99.90
60717;DHT22;46566;52.700;6.192;2023-04-30T04:29:01;7.10;99.90
60717;DHT22;46566;52.700;6.192;2023-04-30T04:31:28;7.10;99.90
60717;DHT22;46566;52.700;6.192;2023-04-30T04:33:55;7.10;99.90
60717;DHT22;46566;52.700;6.192;2023-04-30T04:36:24;7.00;99.90
60717;DHT22;46566;52.700;6.192;2023-04-30T04:38:53;7.00;99.90
60717;DHT22;46566;52.700;6.192;2023-04-30T04:41:19;7.00;99.90
60717;DHT22;46566;52.700;6.192;2023-04-30T04:43:45;7.00;99.90
60717;DHT22;46566;52.700;6.192;2023-04-30T04:46:11;7.10;99.90
60717;DHT22;46566;52.700;6.192;2023-04-30T04:48:41;7.10;99.90
60717;DHT22;46566;52.700;6.192;2023-04-30T04:51:08;7.10;99.90
60717;DHT22;46566;52.700;6.192;2023-04-30T04:53:34;7.10;99.90
60717;DHT22;46566;52.700;6.192;2023-04-30T04:56:00;7.20;99.90
60717;DHT22;46566;52.700;6.192;2023-04-30T04:58:26;7.20;99.90
60717;DHT22;46566;52.700;6.192;2023-04-30T05:00:52;7.10;99.90
60717;DHT22;46566;52.700;6.192;2023-04-30T05:03:19;7.10;99.90
60717;DHT22;46566;52.700;6.192;2023-04-30T05:05:45;7.10;99.90
60717;DHT22;46566;52.700;6.192;2023-04-30T05:08:11;7.00;99.90
60717;DHT22;46566;52.700;6.192;2023-04-30T05:10:39;7.00;99.90
60717;DHT22;46566;52.700;6.192;2023-04-30T05:13:06;7.00;99.90
60717;DHT22;46566;52.700;6.192;2023-04-30T05:15:32;7.00;99.90
60717;DHT22;46566;52.700;6.192;2023-04-30T05:17:57;6.90;99.90
60717;DHT22;46566;52.700;6.192;2023-04-30T05:20:23;6.90;99.90
60717;DHT22;46566;52.700;6.192;2023-04-30T05:22:49;6.90;99.90
60717;DHT22;46566;52.700;6.192;2023-04-30T05:25:15;6.80;99.90
60717;DHT22;46566;52.700;6.192;2023-04-30T05:27:43;6.80;99.90
60717;DHT22;46566;52.700;6.192;2023-04-30T05:30:09;6.80;99.90
60717;DHT22;46566;52.700;6.192;2023-04-30T05:32:35;6.80;99.90
60717;DHT22;46566;52.700;6.192;2023-04-30T05:35:01;6.80;99.90
60717;DHT22;46566;52.700;6.192;2023-04-30T05:37:27;6.80;99.90
60717;DHT22;46566;52.700;6.192;2023-04-30T05:39:53;6.80;99.90
60717;DHT22;46566;52.700;6.192;2023-04-30T05:42:19;6.80;99.90
60717;DHT22;46566;52.700;6.192;2023-04-30T05:44:45;6.80;99.90
60717;DHT22;46566;52.700;6.192;2023-04-30T05:47:11;6.80;99.90
60717;DHT22;46566;52.700;6.192;2023-04-30T05:49:36;6.80;99.90
60717;DHT22;46566;52.700;6.192;2023-04-30T05:52:02;6.80;99.90
60717;DHT22;46566;52.700;6.192;2023-04-30T05:54:29;6.90;99.90
60717;DHT22;46566;52.700;6.192;2023-04-30T05:56:55;6.90;99.90
60717;DHT22;46566;52.700;6.192;2023-04-30T05:59:21;7.00;99.90
60717;DHT22;46566;52.700;6.192;2023-04-30T06:01:47;7.00;99.90
60717;DHT22;46566;52.700;6.192;2023-04-30T06:04:12;7.10;99.90
60717;DHT22;46566;52.700;6.192;2023-04-30T06:06:38;7.10;99.90
60717;DHT22;46566;52.700;6.192;2023-04-30T06:09:04;7.20;99.90
60717;DHT22;46566;52.700;6.192;2023-04-30T06:11:32;7.20;99.90
60717;DHT22;46566;52.700;6.192;2023-04-30T06:16:28;7.50;99.90
60717;DHT22;46566;52.700;6.192;2023-04-30T06:18:53;7.40;99.90
60717;DHT22;46566;52.700;6.192;2023-04-30T06:21:19;7.40;99.90
60717;DHT22;46566;52.700;6.192;2023-04-30T06:23:53;7.50;99.90
60717;DHT22;46566;52.700;6.192;2023-04-30T06:26:22;7.60;99.90
60717;DHT22;46566;52.700;6.192;2023-04-30T06:28:47;7.60;99.90
60717;DHT22;46566;52.700;6.192;2023-04-30T06:31:13;7.60;99.90
60717;DHT22;46566;52.700;6.192;2023-04-30T06:33:39;7.70;99.90
60717;DHT22;46566;52.700;6.192;2023-04-30T06:36:05;7.80;99.90
60717;DHT22;46566;52.700;6.192;2023-04-30T06:38:30;7.80;99.90
60717;DHT22;46566;52.700;6.192;2023-04-30T06:40:56;7.80;99.90
60717;DHT22;46566;52.700;6.192;2023-04-30T06:43:22;7.90;99.90
60717;DHT22;46566;52.700;6.192;2023-04-30T06:45:48;8.00;99.90
60717;DHT22;46566;52.700;6.192;2023-04-30T06:48:14;8.00;99.90
60717;DHT22;46566;52.700;6.192;2023-04-30T06:50:39;8.10;99.90
60717;DHT22;46566;52.700;6.192;2023-04-30T06:53:13;8.20;99.90
60717;DHT22;46566;52.700;6.192;2023-04-30T06:55:40;8.20;99.90
60717;DHT22;46566;52.700;6.192;2023-04-30T06:58:05;8.30;99.90
60717;DHT22;46566;52.700;6.192;2023-04-30T07:00:31;8.40;99.90
60717;DHT22;46566;52.700;6.192;2023-04-30T07:02:57;8.40;99.90
60717;DHT22;46566;52.700;6.192;2023-04-30T07:05:27;8.40;99.90
60717;DHT22;46566;52.700;6.192;2023-04-30T07:07:53;8.50;99.90
60717;DHT22;46566;52.700;6.192;2023-04-30T07:10:19;8.60;99.90
60717;DHT22;46566;52.700;6.192;2023-04-30T07:12:45;8.60;99.90
60717;DHT22;46566;52.700;6.192;2023-04-30T07:15:10;8.70;99.90
60717;DHT22;46566;52.700;6.192;2023-04-30T07:17:36;8.80;99.90
60717;DHT22;46566;52.700;6.192;2023-04-30T07:20:03;8.90;99.90
60717;DHT22;46566;52.700;6.192;2023-04-30T07:22:30;8.90;99.90
60717;DHT22;46566;52.700;6.192;2023-04-30T07:24:56;9.00;99.90
60717;DHT22;46566;52.700;6.192;2023-04-30T07:27:22;9.10;99.90
60717;DHT22;46566;52.700;6.192;2023-04-30T07:29:48;9.30;99.90
60717;DHT22;46566;52.700;6.192;2023-04-30T07:32:13;9.40;99.90
60717;DHT22;46566;52.700;6.192;2023-04-30T07:34:41;9.40;99.90
60717;DHT22;46566;52.700;6.192;2023-04-30T07:37:07;9.50;99.90
60717;DHT22;46566;52.700;6.192;2023-04-30T07:39:34;9.60;99.90
60717;DHT22;46566;52.700;6.192;2023-04-30T07:42:02;9.70;99.90
60717;DHT22;46566;52.700;6.192;2023-04-30T07:44:29;9.80;99.90
60717;DHT22;46566;52.700;6.192;2023-04-30T07:46:54;9.90;99.90
60717;DHT22;46566;52.700;6.192;2023-04-30T07:49:20;10.00;99.90
60717;DHT22;46566;52.700;6.192;2023-04-30T07:51:46;10.10;99.90
60717;DHT22;46566;52.700;6.192;2023-04-30T07:54:12;10.10;99.90
60717;DHT22;46566;52.700;6.192;2023-04-30T07:56:38;10.30;99.90
60717;DHT22;46566;52.700;6.192;2023-04-30T07:59:04;11.10;99.90
60717;DHT22;46566;52.700;6.192;2023-04-30T08:01:33;12.30;99.90
60717;DHT22;46566;52.700;6.192;2023-04-30T08:03:59;13.40;99.90
60717;DHT22;46566;52.700;6.192;2023-04-30T08:08:52;15.20;99.90
60717;DHT22;46566;52.700;6.192;2023-04-30T08:11:17;16.00;99.90
60717;DHT22;46566;52.700;6.192;2023-04-30T08:13:43;16.70;99.90
60717;DHT22;46566;52.700;6.192;2023-04-30T08:16:10;16.90;89.30
60717;DHT22;46566;52.700;6.192;2023-04-30T08:18:35;17.20;76.90
60717;DHT22;46566;52.700;6.192;2023-04-30T08:21:04;17.50;76.70
60717;DHT22;46566;52.700;6.192;2023-04-30T08:23:30;17.80;71.40
60717;DHT22;46566;52.700;6.192;2023-04-30T08:25:56;17.90;72.20
60717;DHT22;46566;52.700;6.192;2023-04-30T08:28:22;18.20;75.30
60717;DHT22;46566;52.700;6.192;2023-04-30T08:30:48;18.50;67.70
60717;DHT22;46566;52.700;6.192;2023-04-30T08:33:19;18.70;68.80
60717;DHT22;46566;52.700;6.192;2023-04-30T08:35:45;18.90;70.80
60717;DHT22;46566;52.700;6.192;2023-04-30T08:38:11;18.70;66.70
60717;DHT22;46566;52.700;6.192;2023-04-30T08:40:39;18.60;71.40
60717;DHT22;46566;52.700;6.192;2023-04-30T08:43:06;18.60;76.80
60717;DHT22;46566;52.700;6.192;2023-04-30T08:45:33;18.60;69.30
60717;DHT22;46566;52.700;6.192;2023-04-30T08:47:59;18.70;68.30
60717;DHT22;46566;52.700;6.192;2023-04-30T08:50:28;18.90;70.80
60717;DHT22;46566;52.700;6.192;2023-04-30T08:52:54;19.40;68.30
60717;DHT22;46566;52.700;6.192;2023-04-30T08:55:20;20.20;69.30
60717;DHT22;46566;52.700;6.192;2023-04-30T08:57:45;20.30;62.80
60717;DHT22;46566;52.700;6.192;2023-04-30T09:00:12;20.20;61.80
60717;DHT22;46566;52.700;6.192;2023-04-30T09:02:40;19.50;63.60
60717;DHT22;46566;52.700;6.192;2023-04-30T09:05:11;19.90;65.00
60717;DHT22;46566;52.700;6.192;2023-04-30T09:07:42;20.30;63.10
60717;DHT22;46566;52.700;6.192;2023-04-30T09:10:19;21.00;63.70
60717;DHT22;46566;52.700;6.192;2023-04-30T09:12:58;21.30;62.10
60717;DHT22;46566;52.700;6.192;2023-04-30T09:15:26;21.60;68.80
60717;DHT22;46566;52.700;6.192;2023-04-30T09:18:13;21.10;59.20
60717;DHT22;46566;52.700;6.192;2023-04-30T09:20:56;20.70;61.10
60717;DHT22;46566;52.700;6.192;2023-04-30T09:23:23;20.60;64.50
60717;DHT22;46566;52.700;6.192;2023-04-30T09:25:49;20.20;65.10
60717;DHT22;46566;52.700;6.192;2023-04-30T09:28:15;19.70;64.00
60717;DHT22;46566;52.700;6.192;2023-04-30T09:30:41;19.40;66.30
60717;DHT22;46566;52.700;6.192;2023-04-30T09:33:08;19.30;65.70
60717;DHT22;46566;52.700;6.192;2023-04-30T09:35:35;19.10;64.90
60717;DHT22;46566;52.700;6.192;2023-04-30T09:38:01;19.00;67.20
60717;DHT22;46566;52.700;6.192;2023-04-30T09:40:40;19.00;66.30
60717;DHT22;46566;52.700;6.192;2023-04-30T09:43:09;18.80;69.50
60717;DHT22;46566;52.700;6.192;2023-04-30T09:45:48;18.60;69.20
60717;DHT22;46566;52.700;6.192;2023-04-30T09:48:19;18.60;71.20
60717;DHT22;46566;52.700;6.192;2023-04-30T09:50:45;18.50;70.60
60717;DHT22;46566;52.700;6.192;2023-04-30T09:53:12;18.40;74.50
60717;DHT22;46566;52.700;6.192;2023-04-30T09:55:45;17.90;76.30
60717;DHT22;46566;52.700;6.192;2023-04-30T09:58:12;17.90;84.10
60717;DHT22;46566;52.700;6.192;2023-04-30T10:00:38;18.10;77.00
60717;DHT22;46566;52.700;6.192;2023-04-30T10:03:06;18.40;74.40
60717;DHT22;46566;52.700;6.192;2023-04-30T10:05:39;18.70;70.80
60717;DHT22;46566;52.700;6.192;2023-04-30T10:08:09;18.90;72.00
60717;DHT22;46566;52.700;6.192;2023-04-30T10:10:40;19.20;69.70
60717;DHT22;46566;52.700;6.192;2023-04-30T10:13:12;19.30;66.20
60717;DHT22;46566;52.700;6.192;2023-04-30T10:15:44;18.90;65.10
60717;DHT22;46566;52.700;6.192;2023-04-30T10:18:27;18.90;68.10
60717;DHT22;46566;52.700;6.192;2023-04-30T10:20:54;19.00;69.10
60717;DHT22;46566;52.700;6.192;2023-04-30T10:23:21;19.00;67.50
60717;DHT22;46566;52.700;6.192;2023-04-30T10:25:47;19.00;68.50
60717;DHT22;46566;52.700;6.192;2023-04-30T10:28:15;19.20;69.10
60717;DHT22;46566;52.700;6.192;2023-04-30T10:30:41;19.40;68.10
60717;DHT22;46566;52.700;6.192;2023-04-30T10:33:33;19.70;68.50
60717;DHT22;46566;52.700;6.192;2023-04-30T10:36:06;19.70;66.40
60717;DHT22;46566;52.700;6.192;2023-04-30T10:38:35;19.80;67.50
60717;DHT22;46566;52.700;6.192;2023-04-30T10:41:05;20.00;65.40
60717;DHT22;46566;52.700;6.192;2023-04-30T10:43:32;20.10;67.80
60717;DHT22;46566;52.700;6.192;2023-04-30T10:46:01;20.00;66.50
60717;DHT22;46566;52.700;6.192;2023-04-30T10:48:27;19.70;82.40
60717;DHT22;46566;52.700;6.192;2023-04-30T10:50:57;19.30;72.00
60717;DHT22;46566;52.700;6.192;2023-04-30T10:53:23;19.40;68.80
60717;DHT22;46566;52.700;6.192;2023-04-30T10:55:58;19.50;68.20
60717;DHT22;46566;52.700;6.192;2023-04-30T10:58:38;19.70;66.20
60717;DHT22;46566;52.700;6.192;2023-04-30T11:01:08;19.70;68.50
60717;DHT22;46566;52.700;6.192;2023-04-30T11:03:35;20.00;67.60
60717;DHT22;46566;52.700;6.192;2023-04-30T11:06:15;20.20;66.40
60717;DHT22;46566;52.700;6.192;2023-04-30T11:08:45;20.50;65.60
60717;DHT22;46566;52.700;6.192;2023-04-30T11:11:16;20.60;65.50
60717;DHT22;46566;52.700;6.192;2023-04-30T11:13:57;20.80;65.90
60717;DHT22;46566;52.700;6.192;2023-04-30T11:16:32;20.90;64.50
60717;DHT22;46566;52.700;6.192;2023-04-30T11:19:09;20.80;63.30
60717;DHT22;46566;52.700;6.192;2023-04-30T11:21:40;20.40;66.90
60717;DHT22;46566;52.700;6.192;2023-04-30T11:24:06;20.40;63.70
60717;DHT22;46566;52.700;6.192;2023-04-30T11:27:03;20.40;65.60
60717;DHT22;46566;52.700;6.192;2023-04-30T11:29:33;20.00;65.10
60717;DHT22;46566;52.700;6.192;2023-04-30T11:32:03;19.60;67.50
60717;DHT22;46566;52.700;6.192;2023-04-30T11:34:30;19.60;68.10
60717;DHT22;46566;52.700;6.192;2023-04-30T11:36:58;19.60;66.50
60717;DHT22;46566;52.700;6.192;2023-04-30T11:39:25;19.80;66.30
60717;DHT22;46566;52.700;6.192;2023-04-30T11:41:52;20.00;64.60
60717;DHT22;46566;52.700;6.192;2023-04-30T11:44:22;20.20;65.20
60717;DHT22;46566;52.700;6.192;2023-04-30T11:46:48;20.40;62.50
60717;DHT22;46566;52.700;6.192;2023-04-30T11:49:14;20.40;68.70
60717;DHT22;46566;52.700;6.192;2023-04-30T11:51:40;20.20;64.90
60717;DHT22;46566;52.700;6.192;2023-04-30T11:54:07;20.10;65.70
60717;DHT22;46566;52.700;6.192;2023-04-30T11:56:37;20.10;66.30
60717;DHT22;46566;52.700;6.192;2023-04-30T11:59:09;20.20;64.00
60717;DHT22;46566;52.700;6.192;2023-04-30T12:01:35;20.40;63.60
60717;DHT22;46566;52.700;6.192;2023-04-30T12:04:01;20.70;62.90
60717;DHT22;46566;52.700;6.192;2023-04-30T12:06:31;21.00;63.10
60717;DHT22;46566;52.700;6.192;2023-04-30T12:08:58;21.30;64.10
60717;DHT22;46566;52.700;6.192;2023-04-30T12:11:37;21.20;61.50
60717;DHT22;46566;52.700;6.192;2023-04-30T12:14:05;21.20;63.70
60717;DHT22;46566;52.700;6.192;2023-04-30T12:16:45;21.20;62.40
60717;DHT22;46566;52.700;6.192;2023-04-30T12:19:18;21.30;64.70
60717;DHT22;46566;52.700;6.192;2023-04-30T12:21:45;21.50;64.60
60717;DHT22;46566;52.700;6.192;2023-04-30T12:24:20;21.50;62.10
60717;DHT22;46566;52.700;6.192;2023-04-30T12:26:52;21.60;62.80
60717;DHT22;46566;52.700;6.192;2023-04-30T12:29:18;21.60;64.00
60717;DHT22;46566;52.700;6.192;2023-04-30T12:31:44;21.30;60.30
60717;DHT22;46566;52.700;6.192;2023-04-30T12:34:13;21.30;61.50
60717;DHT22;46566;52.700;6.192;2023-04-30T12:36:40;21.40;61.80
60717;DHT22;46566;52.700;6.192;2023-04-30T12:39:13;21.40;61.30
60717;DHT22;46566;52.700;6.192;2023-04-30T12:41:43;21.40;62.20
60717;DHT22;46566;52.700;6.192;2023-04-30T12:44:19;21.30;63.20
60717;DHT22;46566;52.700;6.192;2023-04-30T12:46:47;21.00;63.50
60717;DHT22;46566;52.700;6.192;2023-04-30T12:49:34;20.70;62.20
60717;DHT22;46566;52.700;6.192;2023-04-30T12:52:04;20.40;64.20
60717;DHT22;46566;52.700;6.192;2023-04-30T12:54:34;20.20;63.60
60717;DHT22;46566;52.700;6.192;2023-04-30T12:57:06;20.00;63.30
60717;DHT22;46566;52.700;6.192;2023-04-30T12:59:56;20.20;64.00
60717;DHT22;46566;52.700;6.192;2023-04-30T13:02:27;20.40;64.50
60717;DHT22;46566;52.700;6.192;2023-04-30T13:04:54;20.50;63.50
60717;DHT22;46566;52.700;6.192;2023-04-30T13:07:19;20.60;64.10
60717;DHT22;46566;52.700;6.192;2023-04-30T13:09:46;20.90;62.70
60717;DHT22;46566;52.700;6.192;2023-04-30T13:12:11;21.10;63.40
60717;DHT22;46566;52.700;6.192;2023-04-30T13:14:40;21.20;61.00
60717;DHT22;46566;52.700;6.192;2023-04-30T13:17:06;21.10;61.40
60717;DHT22;46566;52.700;6.192;2023-04-30T13:19:34;21.20;61.40
60717;DHT22;46566;52.700;6.192;2023-04-30T13:21:59;21.00;61.30
60717;DHT22;46566;52.700;6.192;2023-04-30T13:24:26;20.90;60.20
60717;DHT22;46566;52.700;6.192;2023-04-30T13:26:52;21.00;64.00
60717;DHT22;46566;52.700;6.192;2023-04-30T13:29:18;20.80;63.00
60717;DHT22;46566;52.700;6.192;2023-04-30T13:31:47;20.80;62.50
60717;DHT22;46566;52.700;6.192;2023-04-30T13:34:14;20.60;61.50
60717;DHT22;46566;52.700;6.192;2023-04-30T13:36:40;20.60;61.80
60717;DHT22;46566;52.700;6.192;2023-04-30T13:39:05;20.60;63.50
60717;DHT22;46566;52.700;6.192;2023-04-30T13:41:32;20.60;61.60
60717;DHT22;46566;52.700;6.192;2023-04-30T13:43:57;20.70;61.70
60717;DHT22;46566;52.700;6.192;2023-04-30T13:46:24;20.50;60.40
60717;DHT22;46566;52.700;6.192;2023-04-30T13:48:50;20.70;63.20
60717;DHT22;46566;52.700;6.192;2023-04-30T13:51:18;20.90;63.30
60717;DHT22;46566;52.700;6.192;2023-04-30T13:53:44;20.90;62.20
60717;DHT22;46566;52.700;6.192;2023-04-30T13:56:10;20.50;63.80
60717;DHT22;46566;52.700;6.192;2023-04-30T13:58:36;20.30;63.40
60717;DHT22;46566;52.700;6.192;2023-04-30T14:01:02;20.20;64.00
60717;DHT22;46566;52.700;6.192;2023-04-30T14:03:28;20.20;61.90
60717;DHT22;46566;52.700;6.192;2023-04-30T14:05:54;20.20;62.30
60717;DHT22;46566;52.700;6.192;2023-04-30T14:08:23;20.10;63.10
60717;DHT22;46566;52.700;6.192;2023-04-30T14:10:48;20.20;63.30
60717;DHT22;46566;52.700;6.192;2023-04-30T14:13:14;20.20;66.50
60717;DHT22;46566;52.700;6.192;2023-04-30T14:15:40;20.20;64.10
60717;DHT22;46566;52.700;6.192;2023-04-30T14:18:06;20.40;63.60
60717;DHT22;46566;52.700;6.192;2023-04-30T14:20:31;20.20;62.60
60717;DHT22;46566;52.700;6.192;2023-04-30T14:22:57;20.10;60.70
60717;DHT22;46566;52.700;6.192;2023-04-30T14:25:23;20.20;61.00
60717;DHT22;46566;52.700;6.192;2023-04-30T14:27:48;20.00;61.90
60717;DHT22;46566;52.700;6.192;2023-04-30T14:30:14;20.00;65.40
60717;DHT22;46566;52.700;6.192;2023-04-30T14:32:40;19.80;63.20
60717;DHT22;46566;52.700;6.192;2023-04-30T14:35:06;19.90;62.20
60717;DHT22;46566;52.700;6.192;2023-04-30T14:37:32;20.10;64.40
60717;DHT22;46566;52.700;6.192;2023-04-30T14:39:58;20.20;61.60
60717;DHT22;46566;52.700;6.192;2023-04-30T14:42:26;20.40;61.80
60717;DHT22;46566;52.700;6.192;2023-04-30T14:44:52;20.40;61.10
60717;DHT22;46566;52.700;6.192;2023-04-30T14:47:17;20.10;61.60
60717;DHT22;46566;52.700;6.192;2023-04-30T14:49:44;19.90;61.70
60717;DHT22;46566;52.700;6.192;2023-04-30T14:52:10;19.90;62.70
60717;DHT22;46566;52.700;6.192;2023-04-30T14:54:35;19.70;65.00
60717;DHT22;46566;52.700;6.192;2023-04-30T14:57:01;19.60;63.50
60717;DHT22;46566;52.700;6.192;2023-04-30T14:59:28;19.60;62.30
60717;DHT22;46566;52.700;6.192;2023-04-30T15:02:05;19.80;62.10
60717;DHT22;46566;52.700;6.192;2023-04-30T15:04:34;19.90;61.80
60717;DHT22;46566;52.700;6.192;2023-04-30T15:07:02;20.00;61.10
60717;DHT22;46566;52.700;6.192;2023-04-30T15:09:32;19.90;61.80
60717;DHT22;46566;52.700;6.192;2023-04-30T15:12:19;20.10;61.70
60717;DHT22;46566;52.700;6.192;2023-04-30T15:14:44;20.20;61.70
60717;DHT22;46566;52.700;6.192;2023-04-30T15:17:10;20.00;60.60
60717;DHT22;46566;52.700;6.192;2023-04-30T15:19:36;19.80;62.10
60717;DHT22;46566;52.700;6.192;2023-04-30T15:22:02;19.70;63.20
60717;DHT22;46566;52.700;6.192;2023-04-30T15:24:28;19.40;62.80
60717;DHT22;46566;52.700;6.192;2023-04-30T15:26:54;19.40;63.70
60717;DHT22;46566;52.700;6.192;2023-04-30T15:29:20;19.40;62.80
60717;DHT22;46566;52.700;6.192;2023-04-30T15:31:45;19.40;62.20
60717;DHT22;46566;52.700;6.192;2023-04-30T15:34:11;19.30;63.00
60717;DHT22;46566;52.700;6.192;2023-04-30T15:36:39;19.20;61.60
60717;DHT22;46566;52.700;6.192;2023-04-30T15:39:04;19.00;61.90
60717;DHT22;46566;52.700;6.192;2023-04-30T15:41:32;19.10;62.30
60717;DHT22;46566;52.700;6.192;2023-04-30T15:43:58;19.00;63.20
60717;DHT22;46566;52.700;6.192;2023-04-30T15:46:23;19.00;63.40
60717;DHT22;46566;52.700;6.192;2023-04-30T15:48:50;19.00;64.20
60717;DHT22;46566;52.700;6.192;2023-04-30T15:51:15;18.90;65.70
60717;DHT22;46566;52.700;6.192;2023-04-30T15:53:41;18.80;65.30
60717;DHT22;46566;52.700;6.192;2023-04-30T15:56:07;18.80;64.50
60717;DHT22;46566;52.700;6.192;2023-04-30T15:58:34;18.70;64.30